TimeCDT,TemperatureF,Dew PointF,Humidity,Sea Level PressureIn,VisibilityMPH,Wind Direction,Wind SpeedMPH,Gust SpeedMPH,PrecipitationIn,Events,Conditions,WindDirDegrees,DateUTC
12:53 AM,66.9,50.0,54,30.12,10.0,South,4.6,-,N/A,,Clear,180,2013-08-23 05:53:00
1:53 AM,68.0,48.9,50,30.12,10.0,East,6.9,-,N/A,,Clear,100,2013-08-23 06:53:00
2:53 AM,66.0,48.9,54,30.12,10.0,East,3.5,-,N/A,,Clear,100,2013-08-23 07:53:00
3:53 AM,64.0,51.1,63,30.12,10.0,Calm,Calm,-,N/A,,Clear,0,2013-08-23 08:53:00
4:53 AM,63.0,48.9,60,30.12,10.0,Calm,Calm,-,N/A,,Clear,0,2013-08-23 09:53:00
5:53 AM,63.0,48.9,60,30.13,10.0,Calm,Calm,-,N/A,,Clear,0,2013-08-23 10:53:00
6:53 AM,62.1,48.9,62,30.15,10.0,East,4.6,-,N/A,,Clear,100,2013-08-23 11:53:00
7:53 AM,64.0,51.1,63,30.15,10.0,East,3.5,-,N/A,,Clear,90,2013-08-23 12:53:00
8:53 AM,68.0,52.0,56,30.15,10.0,SE,4.6,-,N/A,,Clear,130,2013-08-23 13:53:00
9:53 AM,72.0,54.0,53,30.14,10.0,SE,4.6,-,N/A,,Clear,130,2013-08-23 14:53:00
10:53 AM,75.9,57.0,52,30.13,10.0,SE,5.8,-,N/A,,Clear,130,2013-08-23 15:53:00
11:53 AM,80.1,60.1,50,30.12,10.0,SE,5.8,-,N/A,,Clear,130,2013-08-23 16:53:00
12:53 PM,84.0,60.1,44,30.10,10.0,SE,9.2,-,N/A,,Clear,140,2013-08-23 17:53:00
1:53 PM,84.0,61.0,46,30.08,10.0,SSE,10.4,-,N/A,,Clear,160,2013-08-23 18:53:00
2:53 PM,86.0,60.1,41,30.07,10.0,SSE,11.5,-,N/A,,Clear,160,2013-08-23 19:53:00
3:53 PM,86.0,61.0,43,30.05,10.0,SE,8.1,19.6,N/A,,Clear,140,2013-08-23 20:53:00
4:53 PM,86.0,62.1,44,30.04,10.0,SSE,9.2,-,N/A,,Clear,160,2013-08-23 21:53:00
5:53 PM,86.0,63.0,46,30.04,10.0,SSE,12.7,-,N/A,,Clear,150,2013-08-23 22:53:00
6:53 PM,82.9,63.0,51,30.04,10.0,SSE,11.5,-,N/A,,Clear,160,2013-08-23 23:53:00
7:53 PM,80.1,64.9,60,30.03,10.0,South,9.2,-,N/A,,Clear,170,2013-08-24 00:53:00
8:53 PM,77.0,64.9,66,30.04,10.0,South,6.9,-,N/A,,Clear,170,2013-08-24 01:53:00
9:53 PM,75.0,64.9,71,30.06,10.0,SSE,4.6,-,N/A,,Clear,150,2013-08-24 02:53:00
10:53 PM,73.9,66.0,76,30.05,10.0,SSE,8.1,-,N/A,,Clear,160,2013-08-24 03:53:00
11:53 PM,73.0,64.9,76,30.06,10.0,SSE,10.4,-,N/A,,Clear,150,2013-08-24 04:53:00